Aérodrome :
LOGIN :

S'inscrire | Disclaimer

   EN    FR    IT 

 










Légende :    VFR   VFR Marginal   IFR   IFR Intensif   IFR Très Intensif
Visi : 
Plafond : 
>= 8 km
>= 3000ft
5 à 8 km
1000 à 3000 ft
1500m à 5 km
500 à 1000 ft
800 à 1500m
200 à 500 ft
< 800m
< 200 ft
Symboles :   Orages  Brouillard  Fortes neiges  Fortes précipitations  Vent > 20 kt
SIGMETs :   Divers  Orages  Givrage  Turbulence  Onde Orograph.  Cendres Volcan.






- Altitude de l'aérodrome : 142 ft
- Code IATA : FLR


LIRQ - Firenze Amerigo Vespucci

DERNIER METAR :
  • 141120Z 25010KT 220V280 9999 SCT050 25/11 Q1019

METARs EXPIRÉS :
  • 141050Z 27008KT 210V300 9999 BKN050 23/12 Q1019
  • 141020Z 25007KT 210V310 9999 BKN050 23/12 Q1019
  • 140950Z VRB05G15KT 9999 SCT045 22/12 Q1018
  • 140920Z 25007KT 210V310 9999 SCT040 23/12 Q1019
  • 140850Z VRB04KT 9999 SCT035 22/13 Q1018
  • 140820Z 25007KT 190V300 9999 SCT030 21/13 Q1018
  • 140750Z VRB02KT 9999 BKN025 20/14 Q1018
  • 140720Z VRB02KT 9999 SCT025 20/14 Q1018
  • 140650Z VRB02KT 9999 SCT025 19/14 Q1019
  • 140620Z VRB01KT 9999 BKN025 18/13 Q1018

TAF TAF LIRQ
Valide du 14 à 06h jusqu'au 15 à 06h UTC


140500Z 1406/1506 VRB05KT 9999 SCT040
BECMG 1409/1411 26012KT
BECMG 1417/1419 VRB05KT



MET'MAP, la Météo Aéronautique d'un coup d'oeil ! - Copyright ORBIFLY Décembre 2007 - Disclaimer

ORBIFLY MET'MAP TEAM :

Programmation & Développement : Alexandra Zaïnal
Sur une idée originale de : Baudouin d'Aumeries
Soutien technique & logistique : Manuel Goepfert
Assistance : Marc-Olivier Méhu




SOURCES & CREDITS :

   NOAA